sensor_id;sensor_type;location;lat;lon;timestamp;P1;durP1;ratioP1;P2;durP2;ratioP2
50417;SDS011;36346;48.280;14.292;2022-12-20T00:01:39;50.49;;;47.90;;
50417;SDS011;36346;48.280;14.292;2022-12-20T00:04:07;50.97;;;48.39;;
50417;SDS011;36346;48.280;14.292;2022-12-20T00:06:37;49.46;;;47.14;;
50417;SDS011;36346;48.280;14.292;2022-12-20T00:09:06;51.98;;;49.12;;
50417;SDS011;36346;48.280;14.292;2022-12-20T00:11:37;49.19;;;46.48;;
50417;SDS011;36346;48.280;14.292;2022-12-20T00:14:07;51.16;;;48.29;;
50417;SDS011;36346;48.280;14.292;2022-12-20T00:16:36;52.33;;;49.30;;
50417;SDS011;36346;48.280;14.292;2022-12-20T00:19:05;53.23;;;50.09;;
50417;SDS011;36346;48.280;14.292;2022-12-20T00:21:34;52.42;;;49.02;;
50417;SDS011;36346;48.280;14.292;2022-12-20T00:24:03;50.61;;;47.81;;
50417;SDS011;36346;48.280;14.292;2022-12-20T00:26:32;53.96;;;50.50;;
50417;SDS011;36346;48.280;14.292;2022-12-20T00:29:02;52.16;;;49.31;;
50417;SDS011;36346;48.280;14.292;2022-12-20T00:31:31;51.94;;;49.03;;
50417;SDS011;36346;48.280;14.292;2022-12-20T00:34:00;52.04;;;49.25;;
50417;SDS011;36346;48.280;14.292;2022-12-20T00:36:29;50.49;;;48.05;;
50417;SDS011;36346;48.280;14.292;2022-12-20T00:38:59;52.90;;;49.35;;
50417;SDS011;36346;48.280;14.292;2022-12-20T00:41:29;51.63;;;48.70;;
50417;SDS011;36346;48.280;14.292;2022-12-20T00:43:58;52.99;;;49.79;;
50417;SDS011;36346;48.280;14.292;2022-12-20T00:46:27;52.46;;;50.03;;
50417;SDS011;36346;48.280;14.292;2022-12-20T00:48:55;53.25;;;50.55;;
50417;SDS011;36346;48.280;14.292;2022-12-20T00:51:25;53.40;;;50.04;;
50417;SDS011;36346;48.280;14.292;2022-12-20T00:53:54;53.32;;;50.31;;
50417;SDS011;36346;48.280;14.292;2022-12-20T00:56:22;54.56;;;51.22;;
50417;SDS011;36346;48.280;14.292;2022-12-20T00:58:56;54.20;;;50.92;;
50417;SDS011;36346;48.280;14.292;2022-12-20T01:01:30;53.66;;;50.78;;
50417;SDS011;36346;48.280;14.292;2022-12-20T01:04:00;51.76;;;49.42;;
50417;SDS011;36346;48.280;14.292;2022-12-20T01:06:28;51.33;;;48.93;;
50417;SDS011;36346;48.280;14.292;2022-12-20T01:08:57;53.81;;;51.17;;
50417;SDS011;36346;48.280;14.292;2022-12-20T01:11:26;52.78;;;49.95;;
50417;SDS011;36346;48.280;14.292;2022-12-20T01:13:59;53.58;;;50.36;;
50417;SDS011;36346;48.280;14.292;2022-12-20T01:16:30;53.03;;;50.14;;
50417;SDS011;36346;48.280;14.292;2022-12-20T01:19:04;52.72;;;50.06;;
50417;SDS011;36346;48.280;14.292;2022-12-20T01:21:33;53.64;;;50.82;;
50417;SDS011;36346;48.280;14.292;2022-12-20T01:24:01;53.43;;;50.43;;
50417;SDS011;36346;48.280;14.292;2022-12-20T01:26:29;54.86;;;51.85;;
50417;SDS011;36346;48.280;14.292;2022-12-20T01:28:58;56.95;;;53.75;;
50417;SDS011;36346;48.280;14.292;2022-12-20T01:31:27;57.34;;;54.08;;
50417;SDS011;36346;48.280;14.292;2022-12-20T01:33:57;56.73;;;53.86;;
50417;SDS011;36346;48.280;14.292;2022-12-20T01:36:26;56.96;;;54.18;;
50417;SDS011;36346;48.280;14.292;2022-12-20T01:39:00;57.10;;;54.49;;
50417;SDS011;36346;48.280;14.292;2022-12-20T01:41:31;58.00;;;54.79;;
50417;SDS011;36346;48.280;14.292;2022-12-20T01:44:01;57.11;;;54.69;;
50417;SDS011;36346;48.280;14.292;2022-12-20T01:46:34;57.90;;;55.46;;
50417;SDS011;36346;48.280;14.292;2022-12-20T01:51:43;57.15;;;54.29;;
50417;SDS011;36346;48.280;14.292;2022-12-20T01:54:16;56.64;;;53.99;;
50417;SDS011;36346;48.280;14.292;2022-12-20T01:56:51;57.05;;;54.14;;
50417;SDS011;36346;48.280;14.292;2022-12-20T01:59:24;54.94;;;52.23;;
50417;SDS011;36346;48.280;14.292;2022-12-20T02:01:58;55.90;;;52.65;;
50417;SDS011;36346;48.280;14.292;2022-12-20T02:04:31;57.71;;;54.85;;
50417;SDS011;36346;48.280;14.292;2022-12-20T02:06:59;55.86;;;52.83;;
50417;SDS011;36346;48.280;14.292;2022-12-20T02:09:30;56.53;;;53.71;;
50417;SDS011;36346;48.280;14.292;2022-12-20T02:12:09;55.69;;;52.85;;
50417;SDS011;36346;48.280;14.292;2022-12-20T02:23:05;53.99;;;51.77;;
50417;SDS011;36346;48.280;14.292;2022-12-20T02:31:32;53.06;;;50.81;;
50417;SDS011;36346;48.280;14.292;2022-12-20T02:34:22;56.19;;;53.62;;
50417;SDS011;36346;48.280;14.292;2022-12-20T02:36:52;56.67;;;53.84;;
50417;SDS011;36346;48.280;14.292;2022-12-20T02:39:21;57.29;;;54.11;;
50417;SDS011;36346;48.280;14.292;2022-12-20T02:41:53;55.25;;;52.38;;
50417;SDS011;36346;48.280;14.292;2022-12-20T02:44:26;56.25;;;53.31;;
50417;SDS011;36346;48.280;14.292;2022-12-20T02:47:20;59.81;;;56.13;;
50417;SDS011;36346;48.280;14.292;2022-12-20T02:49:54;57.61;;;54.45;;
50417;SDS011;36346;48.280;14.292;2022-12-20T02:52:24;56.45;;;53.59;;
50417;SDS011;36346;48.280;14.292;2022-12-20T02:54:57;57.41;;;54.16;;
50417;SDS011;36346;48.280;14.292;2022-12-20T02:57:35;57.65;;;54.74;;
50417;SDS011;36346;48.280;14.292;2022-12-20T03:00:09;57.35;;;54.25;;
50417;SDS011;36346;48.280;14.292;2022-12-20T03:02:41;57.43;;;54.66;;
50417;SDS011;36346;48.280;14.292;2022-12-20T03:05:30;60.49;;;57.25;;
50417;SDS011;36346;48.280;14.292;2022-12-20T03:08:02;59.99;;;57.36;;
50417;SDS011;36346;48.280;14.292;2022-12-20T03:10:30;61.39;;;58.70;;
50417;SDS011;36346;48.280;14.292;2022-12-20T03:12:58;64.26;;;61.16;;
50417;SDS011;36346;48.280;14.292;2022-12-20T03:15:28;64.33;;;61.10;;
50417;SDS011;36346;48.280;14.292;2022-12-20T03:17:58;64.06;;;61.05;;
50417;SDS011;36346;48.280;14.292;2022-12-20T03:20:27;61.56;;;58.80;;
50417;SDS011;36346;48.280;14.292;2022-12-20T03:22:55;61.26;;;58.52;;
50417;SDS011;36346;48.280;14.292;2022-12-20T03:25:23;62.29;;;59.23;;
50417;SDS011;36346;48.280;14.292;2022-12-20T03:27:52;62.67;;;59.25;;
50417;SDS011;36346;48.280;14.292;2022-12-20T03:30:21;60.19;;;57.13;;
50417;SDS011;36346;48.280;14.292;2022-12-20T03:32:50;58.76;;;55.41;;
50417;SDS011;36346;48.280;14.292;2022-12-20T03:35:18;59.21;;;55.19;;
50417;SDS011;36346;48.280;14.292;2022-12-20T03:37:46;57.91;;;53.90;;
50417;SDS011;36346;48.280;14.292;2022-12-20T03:40:14;57.42;;;54.18;;
50417;SDS011;36346;48.280;14.292;2022-12-20T03:42:43;57.45;;;53.48;;
50417;SDS011;36346;48.280;14.292;2022-12-20T03:45:11;58.10;;;53.87;;
50417;SDS011;36346;48.280;14.292;2022-12-20T03:47:39;55.10;;;51.50;;
50417;SDS011;36346;48.280;14.292;2022-12-20T03:50:08;54.91;;;51.80;;
50417;SDS011;36346;48.280;14.292;2022-12-20T03:52:36;55.56;;;52.08;;
50417;SDS011;36346;48.280;14.292;2022-12-20T03:55:05;55.12;;;51.78;;
50417;SDS011;36346;48.280;14.292;2022-12-20T03:57:43;55.86;;;52.95;;
50417;SDS011;36346;48.280;14.292;2022-12-20T04:00:25;55.56;;;52.30;;
50417;SDS011;36346;48.280;14.292;2022-12-20T04:03:01;56.03;;;52.40;;
50417;SDS011;36346;48.280;14.292;2022-12-20T04:05:30;54.68;;;51.36;;
50417;SDS011;36346;48.280;14.292;2022-12-20T04:07:58;55.59;;;51.87;;
50417;SDS011;36346;48.280;14.292;2022-12-20T04:10:26;54.21;;;50.94;;
50417;SDS011;36346;48.280;14.292;2022-12-20T04:12:55;55.74;;;52.38;;
50417;SDS011;36346;48.280;14.292;2022-12-20T04:15:23;55.18;;;51.91;;
50417;SDS011;36346;48.280;14.292;2022-12-20T04:17:51;55.51;;;51.71;;
50417;SDS011;36346;48.280;14.292;2022-12-20T04:20:20;55.69;;;52.00;;
50417;SDS011;36346;48.280;14.292;2022-12-20T04:22:58;54.32;;;51.06;;
50417;SDS011;36346;48.280;14.292;2022-12-20T04:25:26;54.17;;;50.57;;
50417;SDS011;36346;48.280;14.292;2022-12-20T04:27:55;55.25;;;51.45;;
50417;SDS011;36346;48.280;14.292;2022-12-20T04:30:23;54.73;;;51.25;;
50417;SDS011;36346;48.280;14.292;2022-12-20T04:32:51;56.37;;;52.64;;
50417;SDS011;36346;48.280;14.292;2022-12-20T04:35:22;54.81;;;51.14;;
50417;SDS011;36346;48.280;14.292;2022-12-20T04:37:51;54.82;;;51.29;;
50417;SDS011;36346;48.280;14.292;2022-12-20T04:40:19;55.17;;;51.70;;
50417;SDS011;36346;48.280;14.292;2022-12-20T04:42:52;55.01;;;50.92;;
50417;SDS011;36346;48.280;14.292;2022-12-20T04:45:20;53.34;;;50.05;;
50417;SDS011;36346;48.280;14.292;2022-12-20T04:47:49;56.37;;;52.36;;
50417;SDS011;36346;48.280;14.292;2022-12-20T04:50:23;55.55;;;51.44;;
50417;SDS011;36346;48.280;14.292;2022-12-20T04:52:50;54.99;;;51.30;;
50417;SDS011;36346;48.280;14.292;2022-12-20T04:55:38;56.16;;;52.18;;
50417;SDS011;36346;48.280;14.292;2022-12-20T04:58:08;57.45;;;53.23;;
50417;SDS011;36346;48.280;14.292;2022-12-20T05:00:39;57.21;;;53.03;;
50417;SDS011;36346;48.280;14.292;2022-12-20T05:03:21;56.81;;;52.69;;
50417;SDS011;36346;48.280;14.292;2022-12-20T05:05:51;56.45;;;52.62;;
50417;SDS011;36346;48.280;14.292;2022-12-20T05:08:20;57.12;;;52.98;;
50417;SDS011;36346;48.280;14.292;2022-12-20T05:10:50;58.35;;;54.16;;
50417;SDS011;36346;48.280;14.292;2022-12-20T05:13:18;60.11;;;54.85;;
50417;SDS011;36346;48.280;14.292;2022-12-20T05:15:51;58.09;;;52.98;;
50417;SDS011;36346;48.280;14.292;2022-12-20T05:18:24;57.86;;;53.16;;
50417;SDS011;36346;48.280;14.292;2022-12-20T05:20:59;57.70;;;53.42;;
50417;SDS011;36346;48.280;14.292;2022-12-20T05:23:49;57.48;;;52.92;;
50417;SDS011;36346;48.280;14.292;2022-12-20T05:26:56;56.04;;;51.61;;
50417;SDS011;36346;48.280;14.292;2022-12-20T05:29:26;55.60;;;51.67;;
50417;SDS011;36346;48.280;14.292;2022-12-20T05:31:54;53.85;;;50.30;;
50417;SDS011;36346;48.280;14.292;2022-12-20T05:34:23;58.07;;;52.72;;
50417;SDS011;36346;48.280;14.292;2022-12-20T05:36:53;58.27;;;53.67;;
50417;SDS011;36346;48.280;14.292;2022-12-20T05:39:23;58.69;;;53.90;;
50417;SDS011;36346;48.280;14.292;2022-12-20T05:41:54;57.31;;;52.83;;
50417;SDS011;36346;48.280;14.292;2022-12-20T05:44:24;57.14;;;52.42;;
50417;SDS011;36346;48.280;14.292;2022-12-20T05:46:56;56.02;;;51.67;;
50417;SDS011;36346;48.280;14.292;2022-12-20T05:49:28;54.80;;;50.41;;
50417;SDS011;36346;48.280;14.292;2022-12-20T05:52:00;57.35;;;52.48;;
50417;SDS011;36346;48.280;14.292;2022-12-20T05:54:29;55.47;;;51.25;;
50417;SDS011;36346;48.280;14.292;2022-12-20T05:57:07;54.30;;;50.47;;
50417;SDS011;36346;48.280;14.292;2022-12-20T05:59:38;56.03;;;51.19;;
50417;SDS011;36346;48.280;14.292;2022-12-20T06:02:13;56.37;;;51.38;;
50417;SDS011;36346;48.280;14.292;2022-12-20T06:04:43;57.54;;;52.13;;
50417;SDS011;36346;48.280;14.292;2022-12-20T06:07:17;55.87;;;51.26;;
50417;SDS011;36346;48.280;14.292;2022-12-20T06:09:49;54.27;;;49.94;;
50417;SDS011;36346;48.280;14.292;2022-12-20T06:12:19;54.52;;;50.36;;
50417;SDS011;36346;48.280;14.292;2022-12-20T06:14:48;54.59;;;50.21;;
50417;SDS011;36346;48.280;14.292;2022-12-20T06:17:16;56.95;;;51.81;;
50417;SDS011;36346;48.280;14.292;2022-12-20T06:19:46;54.75;;;50.39;;
50417;SDS011;36346;48.280;14.292;2022-12-20T06:22:16;55.51;;;50.58;;
50417;SDS011;36346;48.280;14.292;2022-12-20T06:24:48;54.75;;;49.06;;
50417;SDS011;36346;48.280;14.292;2022-12-20T06:27:20;55.44;;;50.70;;
50417;SDS011;36346;48.280;14.292;2022-12-20T06:29:58;53.39;;;48.94;;
50417;SDS011;36346;48.280;14.292;2022-12-20T06:32:33;55.14;;;50.48;;
50417;SDS011;36346;48.280;14.292;2022-12-20T06:35:01;54.98;;;49.98;;
50417;SDS011;36346;48.280;14.292;2022-12-20T06:37:29;54.42;;;49.55;;
50417;SDS011;36346;48.280;14.292;2022-12-20T06:39:58;54.49;;;49.49;;
50417;SDS011;36346;48.280;14.292;2022-12-20T06:42:26;56.26;;;51.18;;
50417;SDS011;36346;48.280;14.292;2022-12-20T06:44:54;54.11;;;49.51;;
50417;SDS011;36346;48.280;14.292;2022-12-20T06:47:23;54.00;;;49.31;;
50417;SDS011;36346;48.280;14.292;2022-12-20T06:49:51;53.80;;;49.45;;
50417;SDS011;36346;48.280;14.292;2022-12-20T06:52:22;55.36;;;50.83;;
50417;SDS011;36346;48.280;14.292;2022-12-20T06:54:53;55.05;;;50.46;;
50417;SDS011;36346;48.280;14.292;2022-12-20T06:57:22;56.10;;;50.83;;
50417;SDS011;36346;48.280;14.292;2022-12-20T06:59:51;57.59;;;52.19;;
50417;SDS011;36346;48.280;14.292;2022-12-20T07:02:19;55.55;;;51.04;;
50417;SDS011;36346;48.280;14.292;2022-12-20T07:04:48;58.30;;;52.57;;
50417;SDS011;36346;48.280;14.292;2022-12-20T07:07:16;59.61;;;53.91;;
50417;SDS011;36346;48.280;14.292;2022-12-20T07:09:44;57.88;;;52.37;;
50417;SDS011;36346;48.280;14.292;2022-12-20T07:12:12;58.09;;;52.63;;
50417;SDS011;36346;48.280;14.292;2022-12-20T07:14:40;57.87;;;52.67;;
50417;SDS011;36346;48.280;14.292;2022-12-20T07:17:08;57.19;;;52.20;;
50417;SDS011;36346;48.280;14.292;2022-12-20T07:19:37;59.59;;;53.51;;
50417;SDS011;36346;48.280;14.292;2022-12-20T07:22:09;59.29;;;53.38;;
50417;SDS011;36346;48.280;14.292;2022-12-20T07:24:37;59.28;;;53.91;;
50417;SDS011;36346;48.280;14.292;2022-12-20T07:27:06;59.51;;;53.88;;
50417;SDS011;36346;48.280;14.292;2022-12-20T07:29:34;60.75;;;55.44;;
50417;SDS011;36346;48.280;14.292;2022-12-20T07:32:03;59.35;;;53.94;;
50417;SDS011;36346;48.280;14.292;2022-12-20T07:34:31;59.52;;;54.06;;
50417;SDS011;36346;48.280;14.292;2022-12-20T07:36:59;58.57;;;53.53;;
50417;SDS011;36346;48.280;14.292;2022-12-20T07:39:27;57.13;;;51.86;;
50417;SDS011;36346;48.280;14.292;2022-12-20T07:41:55;56.69;;;51.38;;
50417;SDS011;36346;48.280;14.292;2022-12-20T07:44:24;56.78;;;51.88;;
50417;SDS011;36346;48.280;14.292;2022-12-20T07:46:52;54.02;;;48.96;;
50417;SDS011;36346;48.280;14.292;2022-12-20T07:49:20;54.74;;;49.58;;
50417;SDS011;36346;48.280;14.292;2022-12-20T07:51:49;53.31;;;49.01;;
50417;SDS011;36346;48.280;14.292;2022-12-20T07:54:26;55.92;;;50.32;;
50417;SDS011;36346;48.280;14.292;2022-12-20T07:56:58;55.92;;;51.18;;
50417;SDS011;36346;48.280;14.292;2022-12-20T07:59:38;54.78;;;49.76;;
50417;SDS011;36346;48.280;14.292;2022-12-20T08:02:13;52.21;;;47.68;;
50417;SDS011;36346;48.280;14.292;2022-12-20T08:04:45;54.85;;;49.59;;
50417;SDS011;36346;48.280;14.292;2022-12-20T08:07:15;53.93;;;49.06;;
50417;SDS011;36346;48.280;14.292;2022-12-20T08:09:44;54.20;;;49.44;;
50417;SDS011;36346;48.280;14.292;2022-12-20T08:12:13;52.72;;;48.31;;
50417;SDS011;36346;48.280;14.292;2022-12-20T08:14:44;55.07;;;49.40;;
50417;SDS011;36346;48.280;14.292;2022-12-20T08:17:12;54.23;;;49.58;;
50417;SDS011;36346;48.280;14.292;2022-12-20T08:19:40;57.22;;;51.85;;
50417;SDS011;36346;48.280;14.292;2022-12-20T08:22:08;57.46;;;52.71;;
50417;SDS011;36346;48.280;14.292;2022-12-20T08:24:36;53.67;;;49.57;;
50417;SDS011;36346;48.280;14.292;2022-12-20T08:27:04;54.49;;;49.33;;
50417;SDS011;36346;48.280;14.292;2022-12-20T08:29:32;53.49;;;48.75;;
50417;SDS011;36346;48.280;14.292;2022-12-20T08:32:00;52.21;;;47.92;;
50417;SDS011;36346;48.280;14.292;2022-12-20T08:34:29;53.41;;;48.66;;
50417;SDS011;36346;48.280;14.292;2022-12-20T08:36:58;57.78;;;52.41;;
50417;SDS011;36346;48.280;14.292;2022-12-20T08:39:26;54.81;;;49.84;;
50417;SDS011;36346;48.280;14.292;2022-12-20T08:41:54;53.55;;;49.35;;
50417;SDS011;36346;48.280;14.292;2022-12-20T08:44:22;54.74;;;49.91;;
50417;SDS011;36346;48.280;14.292;2022-12-20T08:46:50;53.18;;;49.16;;
50417;SDS011;36346;48.280;14.292;2022-12-20T08:49:18;53.04;;;49.04;;
50417;SDS011;36346;48.280;14.292;2022-12-20T08:51:46;54.77;;;50.53;;
50417;SDS011;36346;48.280;14.292;2022-12-20T08:54:14;58.16;;;53.05;;
50417;SDS011;36346;48.280;14.292;2022-12-20T08:56:44;56.60;;;52.20;;
50417;SDS011;36346;48.280;14.292;2022-12-20T08:59:12;54.31;;;49.80;;
50417;SDS011;36346;48.280;14.292;2022-12-20T09:01:40;52.96;;;48.76;;
50417;SDS011;36346;48.280;14.292;2022-12-20T09:04:09;51.35;;;47.30;;
50417;SDS011;36346;48.280;14.292;2022-12-20T09:06:37;49.54;;;45.82;;
50417;SDS011;36346;48.280;14.292;2022-12-20T09:09:06;50.55;;;47.01;;
50417;SDS011;36346;48.280;14.292;2022-12-20T09:11:34;51.68;;;47.84;;
50417;SDS011;36346;48.280;14.292;2022-12-20T09:14:02;51.97;;;47.42;;
50417;SDS011;36346;48.280;14.292;2022-12-20T09:16:30;50.84;;;46.61;;
50417;SDS011;36346;48.280;14.292;2022-12-20T09:19:00;50.60;;;47.19;;
50417;SDS011;36346;48.280;14.292;2022-12-20T09:21:32;53.11;;;48.60;;
50417;SDS011;36346;48.280;14.292;2022-12-20T09:24:01;51.73;;;47.81;;
50417;SDS011;36346;48.280;14.292;2022-12-20T09:26:29;52.40;;;48.28;;
50417;SDS011;36346;48.280;14.292;2022-12-20T09:28:57;50.94;;;47.42;;
50417;SDS011;36346;48.280;14.292;2022-12-20T09:31:25;52.42;;;47.58;;
50417;SDS011;36346;48.280;14.292;2022-12-20T09:33:54;50.89;;;46.78;;
50417;SDS011;36346;48.280;14.292;2022-12-20T09:36:25;51.01;;;46.86;;
50417;SDS011;36346;48.280;14.292;2022-12-20T09:38:54;52.21;;;48.36;;
50417;SDS011;36346;48.280;14.292;2022-12-20T09:41:33;51.89;;;47.87;;
50417;SDS011;36346;48.280;14.292;2022-12-20T09:44:15;51.14;;;46.84;;
50417;SDS011;36346;48.280;14.292;2022-12-20T09:46:52;51.28;;;46.75;;
50417;SDS011;36346;48.280;14.292;2022-12-20T09:49:26;51.71;;;47.30;;
50417;SDS011;36346;48.280;14.292;2022-12-20T10:00:09;52.57;;;48.85;;
50417;SDS011;36346;48.280;14.292;2022-12-20T10:02:41;52.71;;;48.83;;
50417;SDS011;36346;48.280;14.292;2022-12-20T10:05:38;52.25;;;48.44;;
50417;SDS011;36346;48.280;14.292;2022-12-20T10:19:12;47.63;;;44.52;;
50417;SDS011;36346;48.280;14.292;2022-12-20T10:26:52;49.62;;;45.94;;
50417;SDS011;36346;48.280;14.292;2022-12-20T10:29:20;49.26;;;45.91;;
50417;SDS011;36346;48.280;14.292;2022-12-20T10:31:50;51.58;;;47.58;;
50417;SDS011;36346;48.280;14.292;2022-12-20T10:34:19;49.65;;;46.16;;
50417;SDS011;36346;48.280;14.292;2022-12-20T10:36:48;50.57;;;47.24;;
50417;SDS011;36346;48.280;14.292;2022-12-20T10:39:41;50.61;;;47.26;;
50417;SDS011;36346;48.280;14.292;2022-12-20T10:45:00;50.08;;;47.10;;
50417;SDS011;36346;48.280;14.292;2022-12-20T10:47:37;49.78;;;46.47;;
50417;SDS011;36346;48.280;14.292;2022-12-20T10:50:18;51.19;;;47.73;;
50417;SDS011;36346;48.280;14.292;2022-12-20T10:53:11;49.68;;;46.12;;
50417;SDS011;36346;48.280;14.292;2022-12-20T10:55:47;50.12;;;46.32;;
50417;SDS011;36346;48.280;14.292;2022-12-20T11:01:17;49.49;;;46.11;;
50417;SDS011;36346;48.280;14.292;2022-12-20T11:03:54;50.03;;;46.89;;
50417;SDS011;36346;48.280;14.292;2022-12-20T11:09:11;49.06;;;45.81;;
50417;SDS011;36346;48.280;14.292;2022-12-20T11:12:14;48.89;;;45.41;;
50417;SDS011;36346;48.280;14.292;2022-12-20T11:14:43;48.90;;;45.26;;
50417;SDS011;36346;48.280;14.292;2022-12-20T11:19:45;50.92;;;47.51;;
50417;SDS011;36346;48.280;14.292;2022-12-20T11:22:50;53.86;;;49.69;;
50417;SDS011;36346;48.280;14.292;2022-12-20T11:28:37;50.50;;;47.49;;
50417;SDS011;36346;48.280;14.292;2022-12-20T11:38:58;51.50;;;47.99;;
50417;SDS011;36346;48.280;14.292;2022-12-20T11:41:41;52.82;;;48.68;;
50417;SDS011;36346;48.280;14.292;2022-12-20T11:47:06;50.71;;;47.17;;
50417;SDS011;36346;48.280;14.292;2022-12-20T11:49:59;49.28;;;46.00;;
50417;SDS011;36346;48.280;14.292;2022-12-20T11:52:57;49.06;;;45.96;;
50417;SDS011;36346;48.280;14.292;2022-12-20T11:55:38;50.39;;;46.83;;
50417;SDS011;36346;48.280;14.292;2022-12-20T11:58:26;49.43;;;46.47;;
50417;SDS011;36346;48.280;14.292;2022-12-20T12:04:19;50.27;;;46.83;;
50417;SDS011;36346;48.280;14.292;2022-12-20T12:09:31;49.66;;;46.74;;
50417;SDS011;36346;48.280;14.292;2022-12-20T12:14:41;52.36;;;48.48;;
50417;SDS011;36346;48.280;14.292;2022-12-20T12:17:17;49.06;;;46.25;;
50417;SDS011;36346;48.280;14.292;2022-12-20T12:22:50;50.59;;;47.45;;
50417;SDS011;36346;48.280;14.292;2022-12-20T12:25:22;49.87;;;46.66;;
50417;SDS011;36346;48.280;14.292;2022-12-20T12:27:50;50.78;;;47.73;;
50417;SDS011;36346;48.280;14.292;2022-12-20T12:30:18;49.96;;;46.92;;
50417;SDS011;36346;48.280;14.292;2022-12-20T12:32:52;51.09;;;47.48;;
50417;SDS011;36346;48.280;14.292;2022-12-20T12:35:45;51.40;;;47.75;;
50417;SDS011;36346;48.280;14.292;2022-12-20T12:44:30;53.30;;;49.87;;
50417;SDS011;36346;48.280;14.292;2022-12-20T12:47:02;53.82;;;49.86;;
50417;SDS011;36346;48.280;14.292;2022-12-20T12:49:35;52.27;;;48.43;;
50417;SDS011;36346;48.280;14.292;2022-12-20T12:52:03;53.45;;;49.82;;
50417;SDS011;36346;48.280;14.292;2022-12-20T12:54:36;53.02;;;49.31;;
50417;SDS011;36346;48.280;14.292;2022-12-20T12:59:45;53.41;;;49.76;;
50417;SDS011;36346;48.280;14.292;2022-12-20T13:04:51;52.25;;;48.09;;
50417;SDS011;36346;48.280;14.292;2022-12-20T13:20:29;50.97;;;47.12;;
50417;SDS011;36346;48.280;14.292;2022-12-20T13:23:12;51.30;;;47.26;;
50417;SDS011;36346;48.280;14.292;2022-12-20T13:25:45;50.80;;;47.12;;
50417;SDS011;36346;48.280;14.292;2022-12-20T13:30:46;48.97;;;45.76;;
50417;SDS011;36346;48.280;14.292;2022-12-20T13:33:54;49.04;;;45.34;;
50417;SDS011;36346;48.280;14.292;2022-12-20T13:39:03;49.74;;;46.53;;
50417;SDS011;36346;48.280;14.292;2022-12-20T13:41:50;48.66;;;45.62;;
50417;SDS011;36346;48.280;14.292;2022-12-20T13:44:38;50.58;;;46.99;;
50417;SDS011;36346;48.280;14.292;2022-12-20T13:47:14;49.75;;;46.64;;
50417;SDS011;36346;48.280;14.292;2022-12-20T13:49:54;50.29;;;47.06;;
50417;SDS011;36346;48.280;14.292;2022-12-20T13:52:28;49.67;;;46.31;;
50417;SDS011;36346;48.280;14.292;2022-12-20T13:54:59;49.69;;;46.53;;
50417;SDS011;36346;48.280;14.292;2022-12-20T13:57:40;49.92;;;46.93;;
50417;SDS011;36346;48.280;14.292;2022-12-20T14:00:14;50.22;;;46.84;;
50417;SDS011;36346;48.280;14.292;2022-12-20T14:02:44;51.21;;;47.87;;
50417;SDS011;36346;48.280;14.292;2022-12-20T14:07:47;50.58;;;46.96;;
50417;SDS011;36346;48.280;14.292;2022-12-20T14:10:23;52.21;;;48.23;;
50417;SDS011;36346;48.280;14.292;2022-12-20T14:12:53;51.09;;;47.75;;
50417;SDS011;36346;48.280;14.292;2022-12-20T14:17:55;53.80;;;49.57;;
50417;SDS011;36346;48.280;14.292;2022-12-20T14:20:28;52.06;;;48.09;;
50417;SDS011;36346;48.280;14.292;2022-12-20T14:23:03;52.53;;;48.26;;
50417;SDS011;36346;48.280;14.292;2022-12-20T14:28:40;52.84;;;48.72;;
50417;SDS011;36346;48.280;14.292;2022-12-20T14:31:21;52.55;;;48.98;;
50417;SDS011;36346;48.280;14.292;2022-12-20T14:36:40;55.87;;;51.70;;
50417;SDS011;36346;48.280;14.292;2022-12-20T14:39:29;54.71;;;50.73;;
50417;SDS011;36346;48.280;14.292;2022-12-20T14:44:34;55.20;;;50.35;;
50417;SDS011;36346;48.280;14.292;2022-12-20T14:49:55;52.94;;;49.10;;
50417;SDS011;36346;48.280;14.292;2022-12-20T14:52:32;50.59;;;47.20;;
50417;SDS011;36346;48.280;14.292;2022-12-20T14:55:04;52.78;;;48.97;;
50417;SDS011;36346;48.280;14.292;2022-12-20T14:57:38;52.56;;;48.46;;
50417;SDS011;36346;48.280;14.292;2022-12-20T15:13:25;50.15;;;47.06;;
50417;SDS011;36346;48.280;14.292;2022-12-20T15:15:57;49.90;;;47.12;;
50417;SDS011;36346;48.280;14.292;2022-12-20T15:18:27;50.14;;;46.95;;
50417;SDS011;36346;48.280;14.292;2022-12-20T15:23:26;52.38;;;48.56;;
50417;SDS011;36346;48.280;14.292;2022-12-20T15:25:54;52.85;;;49.50;;
50417;SDS011;36346;48.280;14.292;2022-12-20T15:28:23;51.49;;;48.33;;
50417;SDS011;36346;48.280;14.292;2022-12-20T15:30:52;50.63;;;47.27;;
50417;SDS011;36346;48.280;14.292;2022-12-20T15:33:23;53.27;;;48.91;;
50417;SDS011;36346;48.280;14.292;2022-12-20T15:35:58;52.79;;;49.27;;
50417;SDS011;36346;48.280;14.292;2022-12-20T15:38:26;52.82;;;49.43;;
50417;SDS011;36346;48.280;14.292;2022-12-20T15:41:36;52.30;;;48.82;;
50417;SDS011;36346;48.280;14.292;2022-12-20T15:44:04;52.90;;;49.50;;
50417;SDS011;36346;48.280;14.292;2022-12-20T15:46:33;52.38;;;49.37;;
50417;SDS011;36346;48.280;14.292;2022-12-20T15:49:01;51.92;;;48.75;;
50417;SDS011;36346;48.280;14.292;2022-12-20T15:51:30;51.81;;;48.74;;
50417;SDS011;36346;48.280;14.292;2022-12-20T15:54:02;53.50;;;50.15;;
50417;SDS011;36346;48.280;14.292;2022-12-20T15:56:32;54.00;;;50.74;;
50417;SDS011;36346;48.280;14.292;2022-12-20T15:59:00;55.58;;;51.99;;
50417;SDS011;36346;48.280;14.292;2022-12-20T16:01:35;55.82;;;52.05;;
50417;SDS011;36346;48.280;14.292;2022-12-20T16:04:11;55.43;;;52.13;;
50417;SDS011;36346;48.280;14.292;2022-12-20T16:06:43;52.88;;;49.86;;
50417;SDS011;36346;48.280;14.292;2022-12-20T16:09:13;54.01;;;50.73;;
50417;SDS011;36346;48.280;14.292;2022-12-20T16:11:42;51.25;;;48.18;;
50417;SDS011;36346;48.280;14.292;2022-12-20T16:14:12;51.01;;;48.06;;
50417;SDS011;36346;48.280;14.292;2022-12-20T16:16:43;50.56;;;47.73;;
50417;SDS011;36346;48.280;14.292;2022-12-20T16:19:12;51.68;;;48.32;;
50417;SDS011;36346;48.280;14.292;2022-12-20T16:21:44;51.08;;;47.60;;
50417;SDS011;36346;48.280;14.292;2022-12-20T16:24:16;50.03;;;46.58;;
50417;SDS011;36346;48.280;14.292;2022-12-20T16:26:49;50.66;;;46.90;;
50417;SDS011;36346;48.280;14.292;2022-12-20T16:29:18;49.86;;;46.30;;
50417;SDS011;36346;48.280;14.292;2022-12-20T16:31:46;49.54;;;46.47;;
50417;SDS011;36346;48.280;14.292;2022-12-20T16:34:14;49.13;;;46.15;;
50417;SDS011;36346;48.280;14.292;2022-12-20T16:36:43;49.66;;;46.72;;
50417;SDS011;36346;48.280;14.292;2022-12-20T16:39:11;50.16;;;47.19;;
50417;SDS011;36346;48.280;14.292;2022-12-20T16:41:39;50.82;;;47.34;;
50417;SDS011;36346;48.280;14.292;2022-12-20T16:44:12;52.69;;;48.94;;
50417;SDS011;36346;48.280;14.292;2022-12-20T16:46:41;52.52;;;49.00;;
50417;SDS011;36346;48.280;14.292;2022-12-20T16:49:10;50.55;;;47.41;;
50417;SDS011;36346;48.280;14.292;2022-12-20T16:51:46;51.97;;;48.23;;
50417;SDS011;36346;48.280;14.292;2022-12-20T16:54:16;53.35;;;49.29;;
50417;SDS011;36346;48.280;14.292;2022-12-20T16:56:50;52.12;;;48.96;;